sensor_id;sensor_type;location;lat;lon;timestamp;P1;durP1;ratioP1;P2;durP2;ratioP2
49051;SDS011;34866;48.670;18.260;2023-09-19T00:00:26;9.50;;;5.70;;
49051;SDS011;34866;48.670;18.260;2023-09-19T00:02:53;10.80;;;5.57;;
49051;SDS011;34866;48.670;18.260;2023-09-19T00:05:24;12.27;;;6.50;;
49051;SDS011;34866;48.670;18.260;2023-09-19T00:07:55;8.70;;;5.38;;
49051;SDS011;34866;48.670;18.260;2023-09-19T00:10:25;9.57;;;5.65;;
49051;SDS011;34866;48.670;18.260;2023-09-19T00:12:52;8.82;;;5.35;;
49051;SDS011;34866;48.670;18.260;2023-09-19T00:15:20;10.90;;;6.20;;
49051;SDS011;34866;48.670;18.260;2023-09-19T00:17:47;19.20;;;6.40;;
49051;SDS011;34866;48.670;18.260;2023-09-19T00:20:13;14.10;;;6.20;;
49051;SDS011;34866;48.670;18.260;2023-09-19T00:22:42;9.13;;;5.68;;
49051;SDS011;34866;48.670;18.260;2023-09-19T00:25:09;11.35;;;5.60;;
49051;SDS011;34866;48.670;18.260;2023-09-19T00:27:35;13.57;;;5.78;;
49051;SDS011;34866;48.670;18.260;2023-09-19T00:30:06;12.27;;;5.88;;
49051;SDS011;34866;48.670;18.260;2023-09-19T00:32:40;9.38;;;5.68;;
49051;SDS011;34866;48.670;18.260;2023-09-19T00:35:07;13.27;;;6.00;;
49051;SDS011;34866;48.670;18.260;2023-09-19T00:37:36;12.20;;;6.13;;
49051;SDS011;34866;48.670;18.260;2023-09-19T00:40:05;14.73;;;6.28;;
49051;SDS011;34866;48.670;18.260;2023-09-19T00:42:35;12.60;;;6.18;;
49051;SDS011;34866;48.670;18.260;2023-09-19T00:45:03;8.63;;;5.45;;
49051;SDS011;34866;48.670;18.260;2023-09-19T00:47:30;12.55;;;6.40;;
49051;SDS011;34866;48.670;18.260;2023-09-19T00:49:56;10.60;;;5.60;;
49051;SDS011;34866;48.670;18.260;2023-09-19T00:52:22;12.48;;;6.30;;
49051;SDS011;34866;48.670;18.260;2023-09-19T00:54:48;15.38;;;5.97;;
49051;SDS011;34866;48.670;18.260;2023-09-19T00:57:15;11.07;;;5.43;;
49051;SDS011;34866;48.670;18.260;2023-09-19T00:59:44;10.38;;;5.80;;
49051;SDS011;34866;48.670;18.260;2023-09-19T01:02:13;12.82;;;5.85;;
49051;SDS011;34866;48.670;18.260;2023-09-19T01:04:40;13.80;;;5.70;;
49051;SDS011;34866;48.670;18.260;2023-09-19T01:07:07;11.98;;;6.25;;
49051;SDS011;34866;48.670;18.260;2023-09-19T01:09:34;10.63;;;6.15;;
49051;SDS011;34866;48.670;18.260;2023-09-19T01:12:01;15.07;;;5.95;;
49051;SDS011;34866;48.670;18.260;2023-09-19T01:14:38;9.68;;;6.10;;
49051;SDS011;34866;48.670;18.260;2023-09-19T01:17:19;14.00;;;6.13;;
49051;SDS011;34866;48.670;18.260;2023-09-19T01:23:00;10.27;;;5.82;;
49051;SDS011;34866;48.670;18.260;2023-09-19T01:25:45;12.07;;;6.00;;
49051;SDS011;34866;48.670;18.260;2023-09-19T01:31:38;10.13;;;6.13;;
49051;SDS011;34866;48.670;18.260;2023-09-19T01:34:07;11.48;;;5.88;;
49051;SDS011;34866;48.670;18.260;2023-09-19T01:36:35;9.93;;;5.90;;
49051;SDS011;34866;48.670;18.260;2023-09-19T01:39:09;8.88;;;5.22;;
49051;SDS011;34866;48.670;18.260;2023-09-19T01:44:22;12.05;;;6.70;;
49051;SDS011;34866;48.670;18.260;2023-09-19T01:47:01;9.50;;;6.03;;
49051;SDS011;34866;48.670;18.260;2023-09-19T01:49:37;11.88;;;5.75;;
49051;SDS011;34866;48.670;18.260;2023-09-19T01:52:13;11.95;;;5.65;;
49051;SDS011;34866;48.670;18.260;2023-09-19T01:54:50;17.23;;;6.15;;
49051;SDS011;34866;48.670;18.260;2023-09-19T01:59:45;15.73;;;6.03;;
49051;SDS011;34866;48.670;18.260;2023-09-19T02:02:19;11.50;;;6.43;;
49051;SDS011;34866;48.670;18.260;2023-09-19T02:04:48;9.00;;;5.72;;
49051;SDS011;34866;48.670;18.260;2023-09-19T02:07:15;11.65;;;6.03;;
49051;SDS011;34866;48.670;18.260;2023-09-19T02:09:42;8.77;;;5.90;;
49051;SDS011;34866;48.670;18.260;2023-09-19T02:12:08;9.07;;;5.60;;
49051;SDS011;34866;48.670;18.260;2023-09-19T02:14:34;9.05;;;5.75;;
49051;SDS011;34866;48.670;18.260;2023-09-19T02:17:01;9.73;;;5.93;;
49051;SDS011;34866;48.670;18.260;2023-09-19T02:19:31;10.98;;;6.32;;
49051;SDS011;34866;48.670;18.260;2023-09-19T02:21:59;13.50;;;6.28;;
49051;SDS011;34866;48.670;18.260;2023-09-19T02:24:28;13.52;;;6.15;;
49051;SDS011;34866;48.670;18.260;2023-09-19T02:26:54;12.55;;;6.63;;
49051;SDS011;34866;48.670;18.260;2023-09-19T02:29:20;11.52;;;5.75;;
49051;SDS011;34866;48.670;18.260;2023-09-19T02:31:47;17.13;;;6.72;;
49051;SDS011;34866;48.670;18.260;2023-09-19T02:34:13;9.07;;;5.82;;
49051;SDS011;34866;48.670;18.260;2023-09-19T02:36:39;14.02;;;7.07;;
49051;SDS011;34866;48.670;18.260;2023-09-19T02:39:04;13.57;;;6.28;;
49051;SDS011;34866;48.670;18.260;2023-09-19T02:41:31;9.40;;;5.57;;
49051;SDS011;34866;48.670;18.260;2023-09-19T02:43:58;12.85;;;6.47;;
49051;SDS011;34866;48.670;18.260;2023-09-19T02:46:24;10.80;;;5.70;;
49051;SDS011;34866;48.670;18.260;2023-09-19T02:48:50;9.15;;;5.72;;
49051;SDS011;34866;48.670;18.260;2023-09-19T02:51:15;10.80;;;6.13;;
49051;SDS011;34866;48.670;18.260;2023-09-19T02:53:41;11.93;;;6.38;;
49051;SDS011;34866;48.670;18.260;2023-09-19T02:56:07;16.75;;;7.13;;
49051;SDS011;34866;48.670;18.260;2023-09-19T02:58:34;16.80;;;6.53;;
49051;SDS011;34866;48.670;18.260;2023-09-19T03:01:07;14.40;;;6.03;;
49051;SDS011;34866;48.670;18.260;2023-09-19T03:03:37;13.70;;;6.75;;
49051;SDS011;34866;48.670;18.260;2023-09-19T03:06:07;12.40;;;6.50;;
49051;SDS011;34866;48.670;18.260;2023-09-19T03:08:34;12.63;;;6.78;;
49051;SDS011;34866;48.670;18.260;2023-09-19T03:11:03;10.10;;;6.20;;
49051;SDS011;34866;48.670;18.260;2023-09-19T03:13:31;15.88;;;6.53;;
49051;SDS011;34866;48.670;18.260;2023-09-19T03:15:57;13.65;;;6.43;;
49051;SDS011;34866;48.670;18.260;2023-09-19T03:18:26;13.38;;;6.95;;
49051;SDS011;34866;48.670;18.260;2023-09-19T03:20:57;12.70;;;6.85;;
49051;SDS011;34866;48.670;18.260;2023-09-19T03:23:25;15.48;;;6.72;;
49051;SDS011;34866;48.670;18.260;2023-09-19T03:25:51;10.77;;;5.95;;
49051;SDS011;34866;48.670;18.260;2023-09-19T03:28:18;14.15;;;6.28;;
49051;SDS011;34866;48.670;18.260;2023-09-19T03:30:59;10.85;;;5.43;;
49051;SDS011;34866;48.670;18.260;2023-09-19T03:33:29;9.32;;;4.63;;
49051;SDS011;34866;48.670;18.260;2023-09-19T03:35:58;11.50;;;4.63;;
49051;SDS011;34866;48.670;18.260;2023-09-19T03:38:27;10.27;;;4.63;;
49051;SDS011;34866;48.670;18.260;2023-09-19T03:40:54;8.98;;;4.88;;
49051;SDS011;34866;48.670;18.260;2023-09-19T03:43:20;16.00;;;4.47;;
49051;SDS011;34866;48.670;18.260;2023-09-19T03:45:46;14.90;;;4.25;;
49051;SDS011;34866;48.670;18.260;2023-09-19T03:48:12;7.53;;;4.13;;
49051;SDS011;34866;48.670;18.260;2023-09-19T03:50:38;8.70;;;4.10;;
49051;SDS011;34866;48.670;18.260;2023-09-19T03:53:04;15.60;;;5.30;;
49051;SDS011;34866;48.670;18.260;2023-09-19T03:55:34;9.43;;;3.67;;
49051;SDS011;34866;48.670;18.260;2023-09-19T03:58:01;7.15;;;3.25;;
49051;SDS011;34866;48.670;18.260;2023-09-19T04:00:27;6.72;;;3.22;;
49051;SDS011;34866;48.670;18.260;2023-09-19T04:02:54;8.05;;;3.80;;
49051;SDS011;34866;48.670;18.260;2023-09-19T04:05:22;7.07;;;3.97;;
49051;SDS011;34866;48.670;18.260;2023-09-19T04:07:48;7.13;;;3.55;;
49051;SDS011;34866;48.670;18.260;2023-09-19T04:10:18;7.00;;;3.97;;
49051;SDS011;34866;48.670;18.260;2023-09-19T04:12:50;6.68;;;3.35;;
49051;SDS011;34866;48.670;18.260;2023-09-19T04:15:20;7.38;;;3.67;;
49051;SDS011;34866;48.670;18.260;2023-09-19T04:17:49;9.40;;;4.05;;
49051;SDS011;34866;48.670;18.260;2023-09-19T04:20:16;8.05;;;3.20;;
49051;SDS011;34866;48.670;18.260;2023-09-19T04:22:45;8.00;;;3.42;;
49051;SDS011;34866;48.670;18.260;2023-09-19T04:25:11;14.48;;;3.63;;
49051;SDS011;34866;48.670;18.260;2023-09-19T04:27:38;10.13;;;3.90;;
49051;SDS011;34866;48.670;18.260;2023-09-19T04:30:04;11.10;;;3.38;;
49051;SDS011;34866;48.670;18.260;2023-09-19T04:32:35;7.05;;;3.25;;
49051;SDS011;34866;48.670;18.260;2023-09-19T04:35:03;10.30;;;3.22;;
49051;SDS011;34866;48.670;18.260;2023-09-19T04:37:31;9.07;;;4.03;;
49051;SDS011;34866;48.670;18.260;2023-09-19T04:39:57;10.48;;;2.88;;
49051;SDS011;34866;48.670;18.260;2023-09-19T04:42:23;8.82;;;3.40;;
49051;SDS011;34866;48.670;18.260;2023-09-19T04:44:50;8.50;;;3.35;;
49051;SDS011;34866;48.670;18.260;2023-09-19T04:47:17;9.70;;;3.13;;
49051;SDS011;34866;48.670;18.260;2023-09-19T04:49:43;7.88;;;4.05;;
49051;SDS011;34866;48.670;18.260;2023-09-19T04:52:09;7.63;;;3.35;;
49051;SDS011;34866;48.670;18.260;2023-09-19T04:54:34;6.45;;;3.42;;
49051;SDS011;34866;48.670;18.260;2023-09-19T04:57:00;7.93;;;3.30;;
49051;SDS011;34866;48.670;18.260;2023-09-19T04:59:26;8.85;;;3.92;;
49051;SDS011;34866;48.670;18.260;2023-09-19T05:01:53;10.98;;;3.67;;
49051;SDS011;34866;48.670;18.260;2023-09-19T05:04:19;7.47;;;3.78;;
49051;SDS011;34866;48.670;18.260;2023-09-19T05:06:44;6.82;;;3.17;;
49051;SDS011;34866;48.670;18.260;2023-09-19T05:09:10;7.15;;;3.20;;
49051;SDS011;34866;48.670;18.260;2023-09-19T05:11:36;5.70;;;2.60;;
49051;SDS011;34866;48.670;18.260;2023-09-19T05:14:03;7.10;;;2.30;;
49051;SDS011;34866;48.670;18.260;2023-09-19T05:16:32;5.60;;;1.60;;
49051;SDS011;34866;48.670;18.260;2023-09-19T05:18:57;3.25;;;1.10;;
49051;SDS011;34866;48.670;18.260;2023-09-19T05:21:25;7.43;;;1.35;;
49051;SDS011;34866;48.670;18.260;2023-09-19T05:23:54;3.05;;;1.10;;
49051;SDS011;34866;48.670;18.260;2023-09-19T05:26:19;3.90;;;1.70;;
49051;SDS011;34866;48.670;18.260;2023-09-19T05:28:46;3.13;;;1.00;;
49051;SDS011;34866;48.670;18.260;2023-09-19T05:31:13;2.75;;;1.10;;
49051;SDS011;34866;48.670;18.260;2023-09-19T05:33:41;2.00;;;0.73;;
49051;SDS011;34866;48.670;18.260;2023-09-19T05:36:07;2.90;;;0.60;;
49051;SDS011;34866;48.670;18.260;2023-09-19T05:38:35;4.90;;;0.77;;
49051;SDS011;34866;48.670;18.260;2023-09-19T05:41:02;1.83;;;0.75;;
49051;SDS011;34866;48.670;18.260;2023-09-19T05:43:27;2.83;;;0.90;;
49051;SDS011;34866;48.670;18.260;2023-09-19T05:45:53;3.10;;;0.65;;
49051;SDS011;34866;48.670;18.260;2023-09-19T05:48:21;2.58;;;0.63;;
49051;SDS011;34866;48.670;18.260;2023-09-19T05:50:47;2.53;;;0.60;;
49051;SDS011;34866;48.670;18.260;2023-09-19T05:53:16;3.28;;;0.80;;
49051;SDS011;34866;48.670;18.260;2023-09-19T05:55:43;2.85;;;1.08;;
49051;SDS011;34866;48.670;18.260;2023-09-19T05:58:09;2.15;;;0.77;;
49051;SDS011;34866;48.670;18.260;2023-09-19T06:00:35;1.80;;;0.70;;
49051;SDS011;34866;48.670;18.260;2023-09-19T06:03:01;2.47;;;0.73;;
49051;SDS011;34866;48.670;18.260;2023-09-19T06:05:27;1.67;;;0.43;;
49051;SDS011;34866;48.670;18.260;2023-09-19T06:07:55;2.17;;;0.63;;
49051;SDS011;34866;48.670;18.260;2023-09-19T06:10:25;4.28;;;0.70;;
49051;SDS011;34866;48.670;18.260;2023-09-19T06:12:53;2.83;;;0.90;;
49051;SDS011;34866;48.670;18.260;2023-09-19T06:15:20;2.63;;;0.85;;
49051;SDS011;34866;48.670;18.260;2023-09-19T06:17:52;2.22;;;1.02;;
49051;SDS011;34866;48.670;18.260;2023-09-19T06:20:22;1.85;;;0.68;;
49051;SDS011;34866;48.670;18.260;2023-09-19T06:22:49;3.47;;;1.33;;
49051;SDS011;34866;48.670;18.260;2023-09-19T06:25:15;4.00;;;0.70;;
49051;SDS011;34866;48.670;18.260;2023-09-19T06:27:44;1.40;;;0.52;;
49051;SDS011;34866;48.670;18.260;2023-09-19T06:30:11;4.35;;;0.70;;
49051;SDS011;34866;48.670;18.260;2023-09-19T06:32:37;2.90;;;0.90;;
49051;SDS011;34866;48.670;18.260;2023-09-19T06:35:03;1.98;;;0.70;;
49051;SDS011;34866;48.670;18.260;2023-09-19T06:37:32;5.90;;;0.88;;
49051;SDS011;34866;48.670;18.260;2023-09-19T06:40:04;3.03;;;0.82;;
49051;SDS011;34866;48.670;18.260;2023-09-19T06:42:38;3.05;;;0.70;;
49051;SDS011;34866;48.670;18.260;2023-09-19T06:45:09;1.88;;;0.70;;
49051;SDS011;34866;48.670;18.260;2023-09-19T06:47:36;2.13;;;0.73;;
49051;SDS011;34866;48.670;18.260;2023-09-19T06:50:02;5.45;;;0.93;;
49051;SDS011;34866;48.670;18.260;2023-09-19T06:52:30;2.85;;;0.80;;
49051;SDS011;34866;48.670;18.260;2023-09-19T06:54:57;2.38;;;0.70;;
49051;SDS011;34866;48.670;18.260;2023-09-19T06:57:23;2.85;;;1.02;;
49051;SDS011;34866;48.670;18.260;2023-09-19T06:59:49;1.52;;;0.60;;
49051;SDS011;34866;48.670;18.260;2023-09-19T07:02:15;3.33;;;1.00;;
49051;SDS011;34866;48.670;18.260;2023-09-19T07:04:41;2.45;;;0.60;;
49051;SDS011;34866;48.670;18.260;2023-09-19T07:07:07;1.67;;;0.70;;
49051;SDS011;34866;48.670;18.260;2023-09-19T07:09:34;4.90;;;1.35;;
49051;SDS011;34866;48.670;18.260;2023-09-19T07:11:59;3.03;;;0.70;;
49051;SDS011;34866;48.670;18.260;2023-09-19T07:14:25;2.38;;;1.00;;
49051;SDS011;34866;48.670;18.260;2023-09-19T07:16:52;1.92;;;0.80;;
49051;SDS011;34866;48.670;18.260;2023-09-19T07:19:17;4.35;;;1.10;;
49051;SDS011;34866;48.670;18.260;2023-09-19T07:21:43;4.35;;;0.95;;
49051;SDS011;34866;48.670;18.260;2023-09-19T07:24:09;3.58;;;0.90;;
49051;SDS011;34866;48.670;18.260;2023-09-19T07:26:35;4.38;;;0.95;;
49051;SDS011;34866;48.670;18.260;2023-09-19T07:29:01;3.42;;;1.10;;
49051;SDS011;34866;48.670;18.260;2023-09-19T07:31:29;2.20;;;0.70;;
49051;SDS011;34866;48.670;18.260;2023-09-19T07:33:55;7.00;;;1.13;;
49051;SDS011;34866;48.670;18.260;2023-09-19T07:36:21;3.78;;;0.80;;
49051;SDS011;34866;48.670;18.260;2023-09-19T07:38:49;4.07;;;0.57;;
49051;SDS011;34866;48.670;18.260;2023-09-19T07:41:15;1.55;;;0.80;;
49051;SDS011;34866;48.670;18.260;2023-09-19T07:43:40;3.67;;;0.82;;
49051;SDS011;34866;48.670;18.260;2023-09-19T07:46:06;1.95;;;0.75;;
49051;SDS011;34866;48.670;18.260;2023-09-19T07:48:34;3.72;;;1.20;;
49051;SDS011;34866;48.670;18.260;2023-09-19T07:51:04;3.15;;;0.68;;
49051;SDS011;34866;48.670;18.260;2023-09-19T07:53:31;3.90;;;1.30;;
49051;SDS011;34866;48.670;18.260;2023-09-19T07:56:03;3.25;;;1.05;;
49051;SDS011;34866;48.670;18.260;2023-09-19T07:58:32;5.38;;;1.15;;
49051;SDS011;34866;48.670;18.260;2023-09-19T08:01:05;4.53;;;0.82;;
49051;SDS011;34866;48.670;18.260;2023-09-19T08:03:35;6.00;;;1.00;;
49051;SDS011;34866;48.670;18.260;2023-09-19T08:06:05;1.88;;;0.57;;
49051;SDS011;34866;48.670;18.260;2023-09-19T08:08:32;2.05;;;0.70;;
49051;SDS011;34866;48.670;18.260;2023-09-19T08:11:04;2.70;;;0.82;;
49051;SDS011;34866;48.670;18.260;2023-09-19T08:13:40;4.95;;;1.05;;
49051;SDS011;34866;48.670;18.260;2023-09-19T08:16:09;4.10;;;0.90;;
49051;SDS011;34866;48.670;18.260;2023-09-19T08:18:35;4.40;;;1.15;;
49051;SDS011;34866;48.670;18.260;2023-09-19T08:21:03;1.63;;;0.75;;
49051;SDS011;34866;48.670;18.260;2023-09-19T08:23:28;5.28;;;0.93;;
49051;SDS011;34866;48.670;18.260;2023-09-19T08:25:57;2.63;;;1.40;;
49051;SDS011;34866;48.670;18.260;2023-09-19T08:28:24;3.40;;;0.98;;
49051;SDS011;34866;48.670;18.260;2023-09-19T08:30:50;3.03;;;0.90;;
49051;SDS011;34866;48.670;18.260;2023-09-19T08:33:16;3.60;;;0.98;;
49051;SDS011;34866;48.670;18.260;2023-09-19T08:35:43;2.42;;;1.10;;
49051;SDS011;34866;48.670;18.260;2023-09-19T08:38:10;2.15;;;0.85;;
49051;SDS011;34866;48.670;18.260;2023-09-19T08:40:37;2.72;;;0.75;;
49051;SDS011;34866;48.670;18.260;2023-09-19T08:43:05;3.88;;;1.05;;
49051;SDS011;34866;48.670;18.260;2023-09-19T08:45:32;5.88;;;1.77;;
49051;SDS011;34866;48.670;18.260;2023-09-19T08:50:57;3.40;;;1.60;;
49051;SDS011;34866;48.670;18.260;2023-09-19T08:53:31;5.03;;;1.50;;
49051;SDS011;34866;48.670;18.260;2023-09-19T08:56:08;2.67;;;0.90;;
49051;SDS011;34866;48.670;18.260;2023-09-19T08:58:46;2.88;;;1.10;;
49051;SDS011;34866;48.670;18.260;2023-09-19T09:01:20;3.55;;;1.10;;
49051;SDS011;34866;48.670;18.260;2023-09-19T09:03:52;2.55;;;0.80;;
49051;SDS011;34866;48.670;18.260;2023-09-19T09:06:19;5.93;;;1.00;;
49051;SDS011;34866;48.670;18.260;2023-09-19T09:08:46;3.83;;;0.80;;
49051;SDS011;34866;48.670;18.260;2023-09-19T09:11:13;8.38;;;1.02;;
49051;SDS011;34866;48.670;18.260;2023-09-19T09:13:41;1.88;;;0.65;;
49051;SDS011;34866;48.670;18.260;2023-09-19T09:16:11;3.67;;;1.55;;
49051;SDS011;34866;48.670;18.260;2023-09-19T09:18:38;2.42;;;0.98;;
49051;SDS011;34866;48.670;18.260;2023-09-19T09:21:05;1.98;;;0.77;;
49051;SDS011;34866;48.670;18.260;2023-09-19T09:23:31;3.25;;;0.80;;
49051;SDS011;34866;48.670;18.260;2023-09-19T09:25:58;2.75;;;0.90;;
49051;SDS011;34866;48.670;18.260;2023-09-19T09:28:28;2.92;;;1.27;;
49051;SDS011;34866;48.670;18.260;2023-09-19T09:30:56;2.47;;;0.90;;
49051;SDS011;34866;48.670;18.260;2023-09-19T09:33:33;2.22;;;0.80;;
49051;SDS011;34866;48.670;18.260;2023-09-19T09:36:00;5.30;;;0.77;;
49051;SDS011;34866;48.670;18.260;2023-09-19T09:38:28;1.90;;;0.63;;
49051;SDS011;34866;48.670;18.260;2023-09-19T09:40:59;1.83;;;0.60;;
49051;SDS011;34866;48.670;18.260;2023-09-19T09:43:35;1.27;;;0.50;;
49051;SDS011;34866;48.670;18.260;2023-09-19T09:46:16;4.05;;;0.68;;
49051;SDS011;34866;48.670;18.260;2023-09-19T09:48:45;1.60;;;0.63;;
49051;SDS011;34866;48.670;18.260;2023-09-19T09:51:44;2.10;;;0.60;;
49051;SDS011;34866;48.670;18.260;2023-09-19T09:54:14;2.30;;;0.95;;
49051;SDS011;34866;48.670;18.260;2023-09-19T09:56:57;2.10;;;0.82;;
49051;SDS011;34866;48.670;18.260;2023-09-19T10:02:20;3.35;;;0.80;;
49051;SDS011;34866;48.670;18.260;2023-09-19T10:04:51;1.20;;;0.47;;
49051;SDS011;34866;48.670;18.260;2023-09-19T10:07:27;1.85;;;0.55;;
49051;SDS011;34866;48.670;18.260;2023-09-19T10:09:57;1.52;;;0.60;;
49051;SDS011;34866;48.670;18.260;2023-09-19T10:12:31;2.33;;;0.68;;
49051;SDS011;34866;48.670;18.260;2023-09-19T10:15:03;1.23;;;0.50;;
49051;SDS011;34866;48.670;18.260;2023-09-19T10:17:33;2.83;;;0.70;;
49051;SDS011;34866;48.670;18.260;2023-09-19T10:20:01;2.35;;;0.80;;
49051;SDS011;34866;48.670;18.260;2023-09-19T10:22:34;1.92;;;0.85;;
49051;SDS011;34866;48.670;18.260;2023-09-19T10:25:02;4.03;;;0.60;;
49051;SDS011;34866;48.670;18.260;2023-09-19T10:27:32;1.42;;;0.60;;
49051;SDS011;34866;48.670;18.260;2023-09-19T10:30:03;2.67;;;0.70;;
49051;SDS011;34866;48.670;18.260;2023-09-19T10:32:32;2.10;;;0.63;;
49051;SDS011;34866;48.670;18.260;2023-09-19T10:35:00;2.38;;;0.60;;
49051;SDS011;34866;48.670;18.260;2023-09-19T10:37:30;1.92;;;0.65;;
49051;SDS011;34866;48.670;18.260;2023-09-19T10:39:59;1.55;;;0.50;;
49051;SDS011;34866;48.670;18.260;2023-09-19T10:42:25;1.83;;;0.60;;
49051;SDS011;34866;48.670;18.260;2023-09-19T10:44:54;1.80;;;0.60;;
49051;SDS011;34866;48.670;18.260;2023-09-19T10:47:25;1.50;;;0.63;;
49051;SDS011;34866;48.670;18.260;2023-09-19T10:49:51;1.83;;;0.47;;
49051;SDS011;34866;48.670;18.260;2023-09-19T10:52:18;1.67;;;0.80;;
49051;SDS011;34866;48.670;18.260;2023-09-19T10:54:50;1.63;;;0.57;;
49051;SDS011;34866;48.670;18.260;2023-09-19T10:57:22;5.72;;;0.63;;
49051;SDS011;34866;48.670;18.260;2023-09-19T11:00:05;4.50;;;0.70;;
49051;SDS011;34866;48.670;18.260;2023-09-19T11:05:40;2.78;;;0.80;;
49051;SDS011;34866;48.670;18.260;2023-09-19T11:08:06;1.25;;;0.50;;
49051;SDS011;34866;48.670;18.260;2023-09-19T11:10:48;4.53;;;0.70;;
49051;SDS011;34866;48.670;18.260;2023-09-19T11:13:29;1.42;;;0.65;;
49051;SDS011;34866;48.670;18.260;2023-09-19T11:16:02;3.97;;;0.88;;
49051;SDS011;34866;48.670;18.260;2023-09-19T11:27:14;3.97;;;1.20;;
49051;SDS011;34866;48.670;18.260;2023-09-19T11:29:42;2.72;;;0.77;;
49051;SDS011;34866;48.670;18.260;2023-09-19T11:32:08;1.77;;;0.73;;
49051;SDS011;34866;48.670;18.260;2023-09-19T11:34:41;3.20;;;0.95;;
49051;SDS011;34866;48.670;18.260;2023-09-19T11:39:37;2.33;;;0.77;;
49051;SDS011;34866;48.670;18.260;2023-09-19T11:48:23;2.75;;;0.63;;
49051;SDS011;34866;48.670;18.260;2023-09-19T11:50:52;4.72;;;0.80;;
49051;SDS011;34866;48.670;18.260;2023-09-19T11:53:18;2.60;;;0.77;;
49051;SDS011;34866;48.670;18.260;2023-09-19T11:55:46;2.58;;;0.68;;
49051;SDS011;34866;48.670;18.260;2023-09-19T11:58:13;3.08;;;0.47;;
49051;SDS011;34866;48.670;18.260;2023-09-19T12:00:41;1.38;;;0.50;;
49051;SDS011;34866;48.670;18.260;2023-09-19T12:03:10;2.10;;;0.60;;
49051;SDS011;34866;48.670;18.260;2023-09-19T12:05:37;6.10;;;0.98;;
49051;SDS011;34866;48.670;18.260;2023-09-19T12:08:07;1.67;;;0.70;;
49051;SDS011;34866;48.670;18.260;2023-09-19T12:10:47;1.52;;;0.65;;
49051;SDS011;34866;48.670;18.260;2023-09-19T12:13:18;4.03;;;0.77;;
49051;SDS011;34866;48.670;18.260;2023-09-19T12:15:44;3.42;;;0.68;;
49051;SDS011;34866;48.670;18.260;2023-09-19T12:18:31;2.50;;;0.65;;
49051;SDS011;34866;48.670;18.260;2023-09-19T12:20:57;1.75;;;0.73;;
49051;SDS011;34866;48.670;18.260;2023-09-19T12:23:23;1.95;;;0.65;;
49051;SDS011;34866;48.670;18.260;2023-09-19T12:25:51;3.67;;;0.70;;
49051;SDS011;34866;48.670;18.260;2023-09-19T12:28:19;1.20;;;0.50;;
49051;SDS011;34866;48.670;18.260;2023-09-19T12:30:47;2.28;;;0.70;;
49051;SDS011;34866;48.670;18.260;2023-09-19T12:33:20;1.85;;;0.68;;
49051;SDS011;34866;48.670;18.260;2023-09-19T12:35:46;1.30;;;0.60;;
49051;SDS011;34866;48.670;18.260;2023-09-19T12:38:27;4.68;;;0.82;;
49051;SDS011;34866;48.670;18.260;2023-09-19T12:40:56;4.72;;;1.17;;
49051;SDS011;34866;48.670;18.260;2023-09-19T12:43:25;4.53;;;0.70;;
49051;SDS011;34866;48.670;18.260;2023-09-19T12:45:52;1.88;;;0.63;;
49051;SDS011;34866;48.670;18.260;2023-09-19T12:53:30;3.95;;;0.80;;
49051;SDS011;34866;48.670;18.260;2023-09-19T12:58:33;3.85;;;0.80;;
49051;SDS011;34866;48.670;18.260;2023-09-19T13:01:00;9.55;;;1.45;;
49051;SDS011;34866;48.670;18.260;2023-09-19T13:03:30;5.82;;;0.90;;
49051;SDS011;34866;48.670;18.260;2023-09-19T13:06:01;2.13;;;0.85;;
49051;SDS011;34866;48.670;18.260;2023-09-19T13:08:38;3.65;;;0.63;;
49051;SDS011;34866;48.670;18.260;2023-09-19T13:11:16;1.88;;;0.70;;
49051;SDS011;34866;48.670;18.260;2023-09-19T13:13:44;2.33;;;0.70;;
49051;SDS011;34866;48.670;18.260;2023-09-19T13:16:18;1.48;;;0.60;;
49051;SDS011;34866;48.670;18.260;2023-09-19T13:18:52;2.88;;;0.73;;
49051;SDS011;34866;48.670;18.260;2023-09-19T13:21:28;4.15;;;0.80;;
49051;SDS011;34866;48.670;18.260;2023-09-19T13:24:17;2.55;;;0.60;;
49051;SDS011;34866;48.670;18.260;2023-09-19T13:26:53;3.22;;;0.98;;
49051;SDS011;34866;48.670;18.260;2023-09-19T13:29:19;4.13;;;0.80;;
49051;SDS011;34866;48.670;18.260;2023-09-19T13:31:51;4.47;;;0.88;;
49051;SDS011;34866;48.670;18.260;2023-09-19T13:34:20;1.55;;;0.60;;
49051;SDS011;34866;48.670;18.260;2023-09-19T13:36:46;3.58;;;0.95;;
49051;SDS011;34866;48.670;18.260;2023-09-19T13:39:15;8.65;;;1.00;;
49051;SDS011;34866;48.670;18.260;2023-09-19T13:41:43;2.42;;;1.15;;
49051;SDS011;34866;48.670;18.260;2023-09-19T13:44:11;5.30;;;0.93;;
49051;SDS011;34866;48.670;18.260;2023-09-19T13:46:37;5.45;;;0.80;;
49051;SDS011;34866;48.670;18.260;2023-09-19T13:49:03;2.72;;;0.80;;
49051;SDS011;34866;48.670;18.260;2023-09-19T13:51:30;4.75;;;1.00;;
49051;SDS011;34866;48.670;18.260;2023-09-19T13:53:56;2.85;;;0.70;;
49051;SDS011;34866;48.670;18.260;2023-09-19T13:56:22;1.75;;;0.63;;
49051;SDS011;34866;48.670;18.260;2023-09-19T13:58:49;2.03;;;0.82;;
49051;SDS011;34866;48.670;18.260;2023-09-19T14:01:14;3.03;;;0.80;;
49051;SDS011;34866;48.670;18.260;2023-09-19T14:03:40;2.47;;;0.70;;
49051;SDS011;34866;48.670;18.260;2023-09-19T14:06:11;2.50;;;0.85;;
49051;SDS011;34866;48.670;18.260;2023-09-19T14:08:38;6.13;;;0.90;;
49051;SDS011;34866;48.670;18.260;2023-09-19T14:11:09;4.15;;;0.95;;
49051;SDS011;34866;48.670;18.260;2023-09-19T14:13:36;2.28;;;0.80;;
49051;SDS011;34866;48.670;18.260;2023-09-19T14:16:06;1.92;;;0.80;;
49051;SDS011;34866;48.670;18.260;2023-09-19T14:18:34;5.93;;;0.95;;
49051;SDS011;34866;48.670;18.260;2023-09-19T14:21:06;2.05;;;0.93;;
49051;SDS011;34866;48.670;18.260;2023-09-19T14:23:36;1.70;;;0.70;;
49051;SDS011;34866;48.670;18.260;2023-09-19T14:26:04;4.15;;;0.82;;
49051;SDS011;34866;48.670;18.260;2023-09-19T14:28:31;3.08;;;0.75;;
49051;SDS011;34866;48.670;18.260;2023-09-19T14:31:03;3.97;;;1.45;;
49051;SDS011;34866;48.670;18.260;2023-09-19T14:33:31;13.15;;;4.13;;
49051;SDS011;34866;48.670;18.260;2023-09-19T14:35:57;6.10;;;2.38;;
49051;SDS011;34866;48.670;18.260;2023-09-19T14:38:22;3.03;;;1.40;;
49051;SDS011;34866;48.670;18.260;2023-09-19T14:40:48;3.53;;;1.25;;
49051;SDS011;34866;48.670;18.260;2023-09-19T14:43:15;4.65;;;1.63;;
49051;SDS011;34866;48.670;18.260;2023-09-19T14:45:41;4.22;;;1.60;;
49051;SDS011;34866;48.670;18.260;2023-09-19T14:48:07;3.40;;;1.50;;
49051;SDS011;34866;48.670;18.260;2023-09-19T14:50:32;4.93;;;1.48;;
49051;SDS011;34866;48.670;18.260;2023-09-19T14:52:58;5.45;;;1.80;;
49051;SDS011;34866;48.670;18.260;2023-09-19T14:55:27;5.05;;;1.90;;
49051;SDS011;34866;48.670;18.260;2023-09-19T14:57:54;5.50;;;2.50;;
49051;SDS011;34866;48.670;18.260;2023-09-19T15:00:22;3.50;;;1.40;;
49051;SDS011;34866;48.670;18.260;2023-09-19T15:02:48;4.03;;;1.45;;
49051;SDS011;34866;48.670;18.260;2023-09-19T15:05:16;4.65;;;1.45;;
49051;SDS011;34866;48.670;18.260;2023-09-19T15:07:42;5.43;;;0.82;;
49051;SDS011;34866;48.670;18.260;2023-09-19T15:10:08;2.97;;;0.90;;
49051;SDS011;34866;48.670;18.260;2023-09-19T15:12:35;3.33;;;0.80;;
49051;SDS011;34866;48.670;18.260;2023-09-19T15:15:03;5.65;;;1.13;;
49051;SDS011;34866;48.670;18.260;2023-09-19T15:17:33;3.88;;;1.02;;
49051;SDS011;34866;48.670;18.260;2023-09-19T15:19:59;4.82;;;0.90;;
49051;SDS011;34866;48.670;18.260;2023-09-19T15:22:25;3.13;;;0.80;;
49051;SDS011;34866;48.670;18.260;2023-09-19T15:24:51;2.53;;;0.80;;